Time;durP1;ratioP1;P1;durP2;ratioP2;P2;SDS_P1;SDS_P2;PMS_P1;PMS_P2;Temp;Humidity;BMP_temperature;BMP_pressure;BME280_temperature;BME280_humidity;BME280_pressure;Samples;Min_cycle;Max_cycle;Signal;HPM_P1;HPM_P2
2021/12/12 00:01:33;;;;;;;4.38;1.52;;;4.80;93.10;;;;;;4861528;29;20049;-75
2021/12/12 00:04:11;;;;;;;2.65;1.30;;;4.70;93.10;;;;;;4860288;29;20413;-75
2021/12/12 00:06:40;;;;;;;3.22;1.45;;;4.80;93.10;;;;;;4847194;29;20041;-76
2021/12/12 00:09:16;;;;;;;2.25;1.05;;;4.70;93.10;;;;;;4878194;29;20045;-76
2021/12/12 00:11:43;;;;;;;3.50;1.58;;;4.70;93.10;;;;;;4858304;29;20048;-76
2021/12/12 00:14:15;;;;;;;3.13;1.30;;;4.70;93.10;;;;;;4861854;29;20049;-76
2021/12/12 00:16:42;;;;;;;3.20;1.58;;;4.80;93.10;;;;;;4876293;29;20500;-76
2021/12/12 00:19:08;;;;;;;2.63;1.60;;;4.80;93.10;;;;;;4878142;29;20055;-75
2021/12/12 00:21:35;;;;;;;3.25;1.70;;;4.80;93.40;;;;;;4878237;29;20045;-76
2021/12/12 00:24:03;;;;;;;4.90;1.75;;;4.80;93.10;;;;;;4876947;29;20084;-75
2021/12/12 00:26:29;;;;;;;3.03;1.60;;;4.80;93.10;;;;;;4860407;29;20051;-76
2021/12/12 00:28:55;;;;;;;3.72;1.60;;;4.80;93.10;;;;;;4846110;29;20413;-76
2021/12/12 00:31:23;;;;;;;3.67;1.50;;;4.80;93.10;;;;;;4861151;29;20049;-75
2021/12/12 00:33:53;;;;;;;3.90;1.60;;;4.80;93.10;;;;;;4878064;29;20056;-76
2021/12/12 00:36:20;;;;;;;4.43;1.70;;;4.80;93.10;;;;;;4877877;29;20071;-76
2021/12/12 00:38:51;;;;;;;2.72;1.45;;;4.80;93.10;;;;;;4861155;29;20037;-76
2021/12/12 00:41:25;;;;;;;4.30;1.75;;;4.80;93.10;;;;;;4844649;29;20552;-76
2021/12/12 00:43:53;;;;;;;3.25;1.63;;;4.80;93.10;;;;;;4845398;29;20516;-75
2021/12/12 00:46:22;;;;;;;2.67;1.42;;;4.80;93.00;;;;;;4877806;29;20446;-76
2021/12/12 00:48:49;;;;;;;3.55;1.70;;;4.80;93.00;;;;;;4861036;29;20049;-76
2021/12/12 00:51:18;;;;;;;3.47;1.77;;;4.90;93.10;;;;;;4859136;29;20127;-75
2021/12/12 00:53:44;;;;;;;2.97;1.52;;;4.90;93.10;;;;;;4843958;29;20041;-76
2021/12/12 00:56:11;;;;;;;3.10;1.67;;;4.90;93.00;;;;;;4861039;29;20517;-75
2021/12/12 00:58:37;;;;;;;3.38;1.63;;;4.90;93.00;;;;;;4860608;29;20076;-76
2021/12/12 01:01:12;;;;;;;3.67;1.45;;;4.90;93.00;;;;;;4877410;29;20052;-76
2021/12/12 01:03:43;;;;;;;3.78;1.67;;;5.00;93.00;;;;;;4877397;29;20072;-76
2021/12/12 01:06:12;;;;;;;3.78;1.48;;;5.00;93.00;;;;;;4861459;29;20044;-75
2021/12/12 01:08:38;;;;;;;3.53;1.60;;;5.10;93.00;;;;;;4845501;29;20101;-76
2021/12/12 01:11:16;;;;;;;4.43;1.80;;;5.00;92.90;;;;;;4861162;29;20073;-76
2021/12/12 01:13:43;;;;;;;3.47;1.88;;;5.00;92.90;;;;;;4845559;29;20469;-76
2021/12/12 01:16:22;;;;;;;2.92;1.48;;;5.00;92.90;;;;;;4860414;29;20511;-76
2021/12/12 01:18:53;;;;;;;3.85;1.60;;;5.00;92.90;;;;;;4875535;29;20049;-76
2021/12/12 01:21:21;;;;;;;;;;;5.00;92.90;;;;;;4844447;29;20443;-76
2021/12/12 01:23:56;;;;;;;3.78;1.60;;;5.10;92.90;;;;;;4877084;29;20265;-76
2021/12/12 01:26:22;;;;;;;2.40;1.40;;;5.10;92.80;;;;;;4845400;29;20520;-76
2021/12/12 01:28:54;;;;;;;2.72;1.45;;;5.10;92.80;;;;;;4860455;29;20092;-76
2021/12/12 01:31:24;;;;;;;2.92;1.58;;;5.10;92.80;;;;;;4860545;29;20450;-76
2021/12/12 01:33:58;;;;;;;1.90;1.10;;;5.10;92.80;;;;;;4845738;29;20139;-76
2021/12/12 01:36:41;;;;;;;4.13;1.20;;;5.10;92.90;;;;;;4879148;29;20293;-76
2021/12/12 01:39:07;;;;;;;2.78;1.38;;;5.10;92.90;;;;;;4865998;29;20052;-76
2021/12/12 01:41:38;;;;;;;1.80;1.25;;;5.10;92.90;;;;;;4848470;29;20041;-76
2021/12/12 01:44:10;;;;;;;4.05;1.40;;;5.10;92.90;;;;;;4878205;29;20049;-76
2021/12/12 01:46:39;;;;;;;;;;;5.10;92.90;;;;;;4863896;29;20128;-76
2021/12/12 01:49:16;;;;;;;3.05;1.70;;;5.10;92.90;;;;;;4863400;29;19915;-75
2021/12/12 01:51:44;;;;;;;3.22;1.10;;;5.10;92.90;;;;;;4879484;29;20120;-76
2021/12/12 01:54:14;;;;;;;4.55;1.45;;;5.10;92.90;;;;;;4880250;29;20092;-76
2021/12/12 01:56:49;;;;;;;3.33;1.50;;;5.10;92.90;;;;;;4860849;29;20053;-75
2021/12/12 01:59:17;;;;;;;2.97;1.40;;;5.10;92.90;;;;;;4848459;29;20442;-76
2021/12/12 02:01:51;;;;;;;2.53;1.50;;;5.10;92.90;;;;;;4879919;29;20044;-76
2021/12/12 02:04:25;;;;;;;4.35;1.85;;;5.10;92.90;;;;;;4879740;29;20341;-75
2021/12/12 02:06:52;;;;;;;5.05;1.90;;;5.10;92.90;;;;;;4863175;29;20096;-76
2021/12/12 02:09:19;;;;;;;3.45;1.60;;;5.10;92.90;;;;;;4880198;29;20041;-76
2021/12/12 02:11:47;;;;;;;3.88;1.70;;;5.20;92.90;;;;;;4863072;29;20048;-76
2021/12/12 02:14:19;;;;;;;2.88;1.42;;;5.10;92.90;;;;;;4863193;29;20106;-76
2021/12/12 02:16:52;;;;;;;2.25;1.27;;;5.10;92.90;;;;;;4879933;29;20128;-75
2021/12/12 02:19:30;;;;;;;2.45;1.20;;;5.10;92.90;;;;;;4848503;29;20148;-76
2021/12/12 02:22:08;;;;;;;2.63;1.30;;;5.10;92.90;;;;;;4862188;29;20128;-76
2021/12/12 02:35:23;;;;;;;3.33;1.25;;;5.20;92.90;;;;;;4879440;29;20135;-76
2021/12/12 02:37:54;;;;;;;3.25;1.15;;;5.20;92.90;;;;;;4879723;29;20049;-76
2021/12/12 02:40:27;;;;;;;2.78;1.20;;;5.20;92.90;;;;;;4879425;29;20417;-76
2021/12/12 02:42:53;;;;;;;2.88;1.20;;;5.20;92.90;;;;;;4879703;29;20053;-76
2021/12/12 02:45:21;;;;;;;2.63;1.17;;;5.20;93.00;;;;;;4862072;29;20097;-75
2021/12/12 02:47:54;;;;;;;2.47;1.27;;;5.20;93.00;;;;;;4862111;29;20053;-76
2021/12/12 02:50:27;;;;;;;2.55;1.30;;;5.20;93.00;;;;;;4833557;29;20041;-75
2021/12/12 02:52:57;;;;;;;2.95;1.30;;;5.20;93.00;;;;;;4862698;29;20036;-76
2021/12/12 02:55:27;;;;;;;3.83;1.20;;;5.20;93.00;;;;;;4863377;29;20053;-76
2021/12/12 02:57:55;;;;;;;1.90;1.00;;;5.30;93.00;;;;;;4846913;29;20041;-76
2021/12/12 03:00:25;;;;;;;4.30;1.50;;;5.20;93.00;;;;;;4846969;29;20045;-76
2021/12/12 03:02:57;;;;;;;1.85;1.08;;;5.30;93.00;;;;;;4847244;29;20041;-76
2021/12/12 03:05:26;;;;;;;2.55;1.25;;;5.20;93.00;;;;;;4846195;29;20048;-76
2021/12/12 03:07:53;;;;;;;2.45;1.30;;;5.20;93.00;;;;;;4847702;29;20650;-76
2021/12/12 03:10:25;;;;;;;3.30;1.30;;;5.30;93.10;;;;;;4831692;29;20052;-76
2021/12/12 03:12:51;;;;;;;2.33;1.08;;;5.30;93.10;;;;;;4862378;29;20045;-76
2021/12/12 03:15:24;;;;;;;2.50;1.25;;;5.30;93.10;;;;;;4862180;29;20189;-75
2021/12/12 03:17:53;;;;;;;2.83;1.35;;;5.30;93.10;;;;;;4861932;29;20458;-75
2021/12/12 03:20:25;;;;;;;3.33;1.20;;;5.30;93.10;;;;;;4862730;29;20060;-75
2021/12/12 03:22:56;;;;;;;4.47;1.10;;;5.30;93.10;;;;;;4878690;29;20045;-76
2021/12/12 03:25:23;;;;;;;4.07;1.30;;;5.40;93.10;;;;;;4847012;29;20041;-76
2021/12/12 03:27:49;;;;;;;3.88;1.35;;;5.30;93.10;;;;;;4862489;29;20475;-76
2021/12/12 03:30:16;;;;;;;2.55;1.20;;;5.30;93.10;;;;;;4862113;29;20044;-76
2021/12/12 03:32:42;;;;;;;3.80;1.25;;;5.30;93.10;;;;;;4846247;29;20060;-76
2021/12/12 03:35:11;;;;;;;3.33;0.98;;;5.40;93.10;;;;;;4831346;29;20045;-76
2021/12/12 03:37:39;;;;;;;3.22;1.15;;;5.50;93.10;;;;;;4878583;29;20049;-76
2021/12/12 03:40:19;;;;;;;2.33;1.30;;;5.40;93.10;;;;;;4831535;29;20049;-77
2021/12/12 03:42:47;;;;;;;2.55;1.40;;;5.40;93.10;;;;;;4846198;29;20041;-76
2021/12/12 03:45:14;;;;;;;3.20;1.20;;;5.30;93.10;;;;;;4831358;29;20468;-77
2021/12/12 03:47:45;;;;;;;2.75;1.40;;;5.40;93.10;;;;;;4831105;29;20049;-77
2021/12/12 03:50:18;;;;;;;2.45;1.20;;;5.40;93.10;;;;;;4831500;29;20048;-77
2021/12/12 03:52:46;;;;;;;2.53;1.05;;;5.40;93.10;;;;;;4831292;29;20045;-76
2021/12/12 03:55:13;;;;;;;2.90;1.40;;;5.40;93.10;;;;;;4847105;29;20053;-76
2021/12/12 03:57:39;;;;;;;3.10;1.30;;;5.50;93.50;;;;;;4846219;29;20488;-77
2021/12/12 04:00:11;;;;;;;1.88;1.30;;;5.40;93.20;;;;;;4830923;29;20481;-77
2021/12/12 04:02:37;;;;;;;2.75;1.27;;;5.30;93.10;;;;;;4844687;29;20076;-76
2021/12/12 04:05:04;;;;;;;1.83;1.02;;;5.40;93.20;;;;;;4829190;29;20131;-77
2021/12/12 04:07:32;;;;;;;2.13;1.00;;;5.40;93.10;;;;;;4846118;29;20052;-77
2021/12/12 04:09:59;;;;;;;2.67;1.23;;;5.40;93.20;;;;;;4831118;29;20090;-77
2021/12/12 04:12:26;;;;;;;2.85;1.27;;;5.40;93.20;;;;;;4830848;29;20081;-77
2021/12/12 04:14:54;;;;;;;2.05;1.20;;;5.50;93.20;;;;;;4831109;29;20072;-77
2021/12/12 04:17:24;;;;;;;3.70;1.40;;;5.50;93.20;;;;;;4842564;29;20040;-77
2021/12/12 04:19:53;;;;;;;1.83;1.00;;;5.50;93.20;;;;;;4830958;29;20177;-77
2021/12/12 04:22:19;;;;;;;2.97;1.52;;;5.50;93.20;;;;;;4845836;29;20044;-76
2021/12/12 04:24:48;;;;;;;2.25;1.20;;;5.50;93.20;;;;;;4861616;29;20052;-76
2021/12/12 04:27:16;;;;;;;1.77;1.27;;;5.50;93.20;;;;;;4846163;29;20049;-77
2021/12/12 04:29:47;;;;;;;2.58;1.10;;;5.50;93.20;;;;;;4830699;29;20041;-77
2021/12/12 04:32:18;;;;;;;2.00;1.27;;;5.60;93.20;;;;;;4830656;29;20055;-77
2021/12/12 04:34:50;;;;;;;1.65;1.00;;;5.50;93.20;;;;;;4831034;29;20389;-77
2021/12/12 04:37:16;;;;;;;;;;;5.60;93.50;;;;;;4831362;29;20057;-77
2021/12/12 04:39:48;;;;;;;1.52;1.00;;;5.60;93.20;;;;;;4845752;29;19919;-77
2021/12/12 04:42:21;;;;;;;2.22;1.10;;;5.60;93.20;;;;;;4831289;29;20189;-77
2021/12/12 04:44:51;;;;;;;2.13;1.30;;;5.60;93.20;;;;;;4845849;29;20056;-76
2021/12/12 04:50:56;;;;;;;2.80;1.35;;;5.60;93.20;;;;;;4850942;29;20406;-76
2021/12/12 04:53:30;;;;;;;1.67;1.08;;;5.70;93.20;;;;;;4847770;29;20060;-77
2021/12/12 04:56:22;;;;;;;2.25;1.10;;;5.60;93.20;;;;;;4830748;29;20118;-76
2021/12/12 04:59:07;;;;;;;2.33;1.23;;;5.70;93.20;;;;;;4877306;29;20057;-76
2021/12/12 05:01:39;;;;;;;3.03;1.10;;;5.60;93.20;;;;;;4861227;29;20048;-76
2021/12/12 05:04:26;;;;;;;1.98;0.95;;;5.70;93.30;;;;;;4860851;29;20387;-77
2021/12/12 05:07:01;;;;;;;1.60;0.90;;;5.70;93.30;;;;;;4860820;29;20048;-76
2021/12/12 05:09:38;;;;;;;2.33;1.30;;;5.70;93.20;;;;;;4876901;29;20043;-77
2021/12/12 05:12:26;;;;;;;1.75;0.90;;;5.80;93.30;;;;;;4881067;29;20056;-76
2021/12/12 05:14:57;;;;;;;3.40;1.13;;;5.80;93.30;;;;;;4864293;29;20381;-77
2021/12/12 05:17:32;;;;;;;2.50;1.23;;;5.80;93.30;;;;;;4833623;29;20045;-76
2021/12/12 05:20:02;;;;;;;1.70;1.10;;;5.80;93.50;;;;;;4864156;29;20490;-77
2021/12/12 05:22:36;;;;;;;2.28;1.15;;;5.80;93.30;;;;;;4880529;29;20044;-76
2021/12/12 05:25:07;;;;;;;1.70;1.00;;;5.80;93.30;;;;;;4880667;29;20051;-76
2021/12/12 05:27:35;;;;;;;1.40;0.98;;;5.90;93.30;;;;;;4863815;29;20037;-76
2021/12/12 05:30:10;;;;;;;1.15;0.95;;;5.90;93.30;;;;;;4864105;29;20399;-76
2021/12/12 05:32:36;;;;;;;2.08;1.30;;;5.90;93.30;;;;;;4863866;29;20037;-76
2021/12/12 05:35:05;;;;;;;2.08;1.20;;;5.90;93.30;;;;;;4880528;29;20409;-75
2021/12/12 05:37:31;;;;;;;1.65;1.20;;;5.90;93.30;;;;;;4863934;29;20100;-76
2021/12/12 05:40:02;;;;;;;2.97;1.63;;;5.90;93.30;;;;;;4860038;29;20108;-76
2021/12/12 05:42:29;;;;;;;2.23;1.30;;;6.00;93.30;;;;;;4880899;29;20049;-76
2021/12/12 05:44:56;;;;;;;1.80;1.10;;;6.00;93.30;;;;;;4880346;29;20281;-76
2021/12/12 05:47:22;;;;;;;2.72;1.40;;;6.10;93.30;;;;;;4848398;29;20075;-76
2021/12/12 05:49:48;;;;;;;2.75;1.33;;;6.00;93.30;;;;;;4848239;29;20497;-76
2021/12/12 05:52:18;;;;;;;1.95;1.10;;;6.00;93.30;;;;;;4863721;29;20113;-76
2021/12/12 05:54:46;;;;;;;2.42;1.20;;;6.00;93.30;;;;;;4862331;29;20051;-76
2021/12/12 05:57:13;;;;;;;2.55;1.13;;;6.10;93.30;;;;;;4863850;29;20072;-76
2021/12/12 05:59:40;;;;;;;1.95;1.20;;;6.00;93.30;;;;;;4863472;29;20045;-77
2021/12/12 06:02:06;;;;;;;2.88;1.33;;;6.10;93.30;;;;;;4848083;29;20052;-75
2021/12/12 06:04:34;;;;;;;2.20;1.23;;;6.10;93.30;;;;;;4863466;29;20455;-76
2021/12/12 06:07:03;;;;;;;2.10;1.50;;;6.10;93.30;;;;;;4863625;29;20049;-76
2021/12/12 06:09:31;;;;;;;2.20;1.40;;;6.20;93.30;;;;;;4863899;29;20041;-76
2021/12/12 06:11:59;;;;;;;3.35;1.50;;;6.10;93.30;;;;;;4863332;29;20053;-75
2021/12/12 06:14:27;;;;;;;2.17;1.50;;;6.20;93.30;;;;;;4863718;29;20068;-77
2021/12/12 06:16:53;;;;;;;3.50;2.20;;;6.20;93.30;;;;;;4863612;29;20105;-75
2021/12/12 06:19:22;;;;;;;3.67;1.95;;;6.20;93.30;;;;;;4848158;29;20037;-76
2021/12/12 06:21:54;;;;;;;4.30;2.65;;;6.30;93.30;;;;;;4876890;29;20048;-75
2021/12/12 06:24:21;;;;;;;4.93;2.60;;;6.30;93.30;;;;;;4862254;29;20104;-75
2021/12/12 06:26:47;;;;;;;3.67;2.20;;;6.30;93.30;;;;;;4846282;29;20045;-76
2021/12/12 06:29:14;;;;;;;3.90;2.05;;;6.30;93.30;;;;;;4879969;29;20047;-76
2021/12/12 06:31:44;;;;;;;4.63;2.20;;;6.40;93.30;;;;;;4832592;29;20048;-76
2021/12/12 06:34:11;;;;;;;4.97;2.00;;;6.30;93.30;;;;;;4863879;29;20557;-76
2021/12/12 06:36:38;;;;;;;3.08;1.95;;;6.40;93.30;;;;;;4863308;29;20109;-76
2021/12/12 06:39:07;;;;;;;2.63;1.65;;;6.40;93.40;;;;;;4832591;29;20132;-76
2021/12/12 06:41:35;;;;;;;3.60;2.10;;;6.40;93.40;;;;;;4877676;29;20569;-76
2021/12/12 06:44:10;;;;;;;3.35;1.95;;;6.40;93.40;;;;;;4832322;29;20047;-77
2021/12/12 06:46:38;;;;;;;2.90;2.05;;;6.40;93.40;;;;;;4861229;29;20049;-76
2021/12/12 06:49:06;;;;;;;3.17;2.28;;;6.40;93.60;;;;;;4860955;29;20481;-75
2021/12/12 06:51:36;;;;;;;4.05;1.88;;;6.40;93.40;;;;;;4832273;29;20449;-76
2021/12/12 06:54:03;;;;;;;5.07;2.47;;;6.50;93.40;;;;;;4862637;29;20096;-77
2021/12/12 06:56:29;;;;;;;3.78;2.25;;;6.50;93.40;;;;;;4862738;29;20101;-76
2021/12/12 06:58:57;;;;;;;3.95;2.40;;;6.40;93.40;;;;;;4846945;29;20401;-77
2021/12/12 07:01:28;;;;;;;4.70;2.25;;;6.50;93.40;;;;;;4847385;29;20463;-77
2021/12/12 07:03:55;;;;;;;3.05;1.98;;;6.50;93.40;;;;;;4859247;29;20080;-75
2021/12/12 07:06:25;;;;;;;2.70;1.80;;;6.50;93.40;;;;;;4830332;29;20044;-77
2021/12/12 07:08:51;;;;;;;4.60;2.00;;;6.50;93.40;;;;;;4830603;29;20052;-77
2021/12/12 07:11:21;;;;;;;2.88;1.65;;;6.50;93.40;;;;;;4862524;29;20110;-77
2021/12/12 07:13:48;;;;;;;3.15;1.80;;;6.50;93.50;;;;;;4862748;29;20048;-78
2021/12/12 07:16:17;;;;;;;4.88;2.00;;;6.50;93.50;;;;;;4831797;29;20048;-75
2021/12/12 07:18:44;;;;;;;6.03;1.98;;;6.50;93.50;;;;;;4878800;29;20638;-76
2021/12/12 07:21:13;;;;;;;3.65;1.88;;;6.60;93.50;;;;;;4878745;29;20056;-75
2021/12/12 07:23:41;;;;;;;3.10;1.50;;;6.60;93.50;;;;;;4878925;29;20053;-76
2021/12/12 07:26:10;;;;;;;2.83;1.60;;;6.60;93.50;;;;;;4862065;29;20033;-76
2021/12/12 07:28:37;;;;;;;2.53;1.70;;;6.60;93.50;;;;;;4862086;29;20170;-75
2021/12/12 07:31:07;;;;;;;3.55;1.55;;;6.60;93.50;;;;;;4862150;29;20053;-75
2021/12/12 07:33:35;;;;;;;2.55;1.45;;;6.60;93.50;;;;;;4878260;29;20117;-76
2021/12/12 07:36:05;;;;;;;3.60;2.00;;;6.60;93.50;;;;;;4862487;29;20109;-75
2021/12/12 07:38:32;;;;;;;2.92;1.55;;;6.80;93.60;;;;;;4862196;29;20303;-75
2021/12/12 07:40:59;;;;;;;2.90;1.75;;;6.70;93.50;;;;;;4861961;29;20507;-76
2021/12/12 07:43:28;;;;;;;3.50;1.98;;;6.70;93.50;;;;;;4877295;29;20049;-75
2021/12/12 07:45:54;;;;;;;4.35;2.17;;;6.70;93.50;;;;;;4846514;29;20485;-76
2021/12/12 07:48:20;;;;;;;2.55;1.55;;;6.70;93.50;;;;;;4861733;29;20073;-76
2021/12/12 07:50:47;;;;;;;3.05;1.67;;;6.80;93.60;;;;;;4846543;29;20549;-76
2021/12/12 07:53:14;;;;;;;2.85;1.42;;;6.80;93.60;;;;;;4878936;29;20053;-76
2021/12/12 07:55:40;;;;;;;4.45;2.22;;;6.80;93.60;;;;;;4847316;29;20132;-76
2021/12/12 07:58:09;;;;;;;3.17;1.60;;;6.80;93.60;;;;;;4861946;29;20084;-75
2021/12/12 08:00:36;;;;;;;4.75;2.13;;;6.80;93.60;;;;;;4879163;29;20045;-75
2021/12/12 08:03:03;;;;;;;4.40;1.70;;;6.90;93.60;;;;;;4878737;29;20510;-76
2021/12/12 08:05:31;;;;;;;3.05;1.73;;;6.90;93.60;;;;;;4861952;29;20524;-75
2021/12/12 08:08:01;;;;;;;3.05;1.67;;;6.90;93.60;;;;;;4878467;29;20051;-75
2021/12/12 08:10:29;;;;;;;2.72;1.50;;;6.90;93.60;;;;;;4846474;29;20048;-75
2021/12/12 08:12:55;;;;;;;3.95;1.40;;;6.90;93.60;;;;;;4878181;29;20048;-76
2021/12/12 08:15:21;;;;;;;4.18;2.03;;;7.00;93.60;;;;;;4878319;29;20084;-75
2021/12/12 08:17:48;;;;;;;3.58;1.90;;;7.00;93.60;;;;;;4861581;29;20568;-75
2021/12/12 08:20:15;;;;;;;3.22;1.63;;;7.00;93.60;;;;;;4876870;29;20059;-75
2021/12/12 08:22:42;;;;;;;3.05;1.63;;;7.00;93.60;;;;;;4846076;29;20056;-75
2021/12/12 08:25:10;;;;;;;4.57;1.75;;;7.00;93.60;;;;;;4861422;29;20264;-76
2021/12/12 08:27:37;;;;;;;4.07;1.65;;;7.10;93.60;;;;;;4878110;29;20505;-75
2021/12/12 08:30:04;;;;;;;4.57;1.90;;;7.20;93.60;;;;;;4846134;29;20068;-76
2021/12/12 08:32:30;;;;;;;3.78;1.90;;;7.10;93.60;;;;;;4859947;29;20112;-75
2021/12/12 08:34:56;;;;;;;5.18;1.90;;;7.20;93.90;;;;;;4878345;29;20128;-76
2021/12/12 08:37:22;;;;;;;3.30;1.60;;;7.20;93.60;;;;;;4877881;29;20049;-75
2021/12/12 08:39:48;;;;;;;3.58;2.00;;;7.20;93.60;;;;;;4846709;29;20506;-76
2021/12/12 08:42:14;;;;;;;6.35;2.50;;;7.20;93.60;;;;;;4863587;29;20052;-77
2021/12/12 08:44:40;;;;;;;4.35;2.33;;;7.30;93.60;;;;;;4862669;29;20529;-77
2021/12/12 08:47:09;;;;;;;5.00;2.13;;;7.20;93.60;;;;;;4864525;29;20068;-77
2021/12/12 08:49:38;;;;;;;3.83;2.05;;;7.20;93.60;;;;;;4865083;29;20518;-77
2021/12/12 08:52:10;;;;;;;4.07;1.80;;;7.20;93.90;;;;;;4881357;29;20084;-77
2021/12/12 08:54:40;;;;;;;5.03;1.60;;;7.30;93.60;;;;;;4864645;29;20029;-77
2021/12/12 08:57:13;;;;;;;4.10;1.73;;;7.30;93.60;;;;;;4847904;29;20482;-77
2021/12/12 08:59:45;;;;;;;4.15;1.90;;;7.30;93.60;;;;;;4850198;29;20045;-78
2021/12/12 09:02:13;;;;;;;;;;;7.40;93.70;;;;;;4881793;29;20359;-77
2021/12/12 09:04:43;;;;;;;4.13;1.48;;;7.40;93.70;;;;;;4864273;29;19920;-77
2021/12/12 09:07:20;;;;;;;2.10;1.40;;;7.30;93.60;;;;;;4880903;29;20049;-77
2021/12/12 09:09:56;;;;;;;3.15;1.40;;;7.40;93.70;;;;;;4880638;29;20082;-78
2021/12/12 09:12:26;;;;;;;3.83;1.60;;;7.40;93.60;;;;;;4862691;29;20049;-77
2021/12/12 09:14:58;;;;;;;3.17;1.67;;;7.40;93.70;;;;;;4848939;29;20192;-77
2021/12/12 09:17:30;;;;;;;3.72;1.77;;;7.40;93.70;;;;;;4881312;29;20461;-78
2021/12/12 09:20:03;;;;;;;4.63;1.52;;;7.40;93.70;;;;;;4864055;29;20055;-78
2021/12/12 09:22:37;;;;;;;4.20;1.73;;;7.50;93.70;;;;;;4862365;29;20053;-78
2021/12/12 09:25:22;;;;;;;2.30;1.50;;;7.50;93.70;;;;;;4833614;29;20124;-78
2021/12/12 09:27:54;;;;;;;3.35;1.50;;;7.50;93.70;;;;;;4864234;29;20447;-78
2021/12/12 09:30:22;;;;;;;3.58;1.60;;;7.60;93.70;;;;;;4863939;29;20488;-78
2021/12/12 09:32:56;;;;;;;4.13;1.60;;;7.60;93.70;;;;;;4863793;29;20045;-78
2021/12/12 09:35:33;;;;;;;2.75;1.60;;;7.60;93.70;;;;;;4880519;29;20053;-78
2021/12/12 09:38:11;;;;;;;5.70;2.00;;;7.70;93.70;;;;;;4848942;29;20509;-78
2021/12/12 09:41:11;;;;;;;3.55;1.65;;;7.70;93.70;;;;;;4863918;29;20144;-78
2021/12/12 09:43:59;;;;;;;3.72;2.00;;;7.70;93.70;;;;;;4868603;29;20493;-78
2021/12/12 09:46:55;;;;;;;4.80;2.08;;;7.70;93.70;;;;;;4862183;29;20045;-78
2021/12/12 09:53:11;;;;;;;5.85;2.60;;;7.90;93.70;;;;;;4867428;29;20053;-78
2021/12/12 09:55:53;;;;;;;6.30;2.63;;;7.80;93.60;;;;;;4861994;29;20405;-79
2021/12/12 09:58:31;;;;;;;6.43;2.47;;;7.90;93.60;;;;;;4863577;29;20048;-78
2021/12/12 10:01:03;;;;;;;5.57;2.30;;;7.90;93.60;;;;;;4863504;29;20048;-79
2021/12/12 10:03:54;;;;;;;5.82;2.60;;;7.90;93.60;;;;;;4848504;29;20052;-79
2021/12/12 10:06:43;;;;;;;7.20;2.40;;;8.00;93.60;;;;;;4879756;29;20041;-78
2021/12/12 10:09:15;;;;;;;3.95;2.20;;;8.00;93.70;;;;;;4879800;29;20049;-79
2021/12/12 10:11:53;;;;;;;4.13;2.20;;;8.00;93.60;;;;;;4880301;29;20065;-78
2021/12/12 10:14:53;;;;;;;5.97;2.10;;;8.00;93.60;;;;;;4862565;29;20080;-78
2021/12/12 10:17:46;;;;;;;4.18;2.17;;;8.10;93.70;;;;;;4868130;29;20084;-79
2021/12/12 10:20:22;;;;;;;5.72;2.30;;;8.00;93.60;;;;;;4879614;29;20056;-79
2021/12/12 10:23:20;;;;;;;3.83;1.90;;;8.10;93.70;;;;;;4863161;29;20041;-79
2021/12/12 10:25:58;;;;;;;3.72;1.90;;;8.10;93.70;;;;;;4878666;29;20041;-78
2021/12/12 10:28:33;;;;;;;3.67;1.67;;;8.10;93.70;;;;;;4864291;29;20469;-78
2021/12/12 10:31:07;;;;;;;4.78;1.83;;;8.10;93.70;;;;;;4865154;29;20375;-78
2021/12/12 10:33:46;;;;;;;4.70;1.90;;;8.20;93.70;;;;;;4869657;29;20048;-79
2021/12/12 10:36:17;;;;;;;2.95;1.65;;;8.20;93.70;;;;;;4851221;29;20041;-78
2021/12/12 10:38:57;;;;;;;3.60;1.73;;;8.30;93.70;;;;;;4869130;29;20041;-78
2021/12/12 10:41:28;;;;;;;3.17;1.75;;;8.30;93.70;;;;;;4852815;29;20048;-79
2021/12/12 10:44:00;;;;;;;3.65;1.83;;;8.30;93.70;;;;;;4863896;29;20080;-79
2021/12/12 10:46:38;;;;;;;2.97;1.48;;;8.30;93.70;;;;;;4862844;29;20532;-79
2021/12/12 10:49:26;;;;;;;3.30;1.83;;;8.30;93.70;;;;;;4882225;29;20132;-76
2021/12/12 10:52:10;;;;;;;3.20;1.60;;;8.30;93.70;;;;;;4866659;29;20386;-78
2021/12/12 10:54:45;;;;;;;3.03;1.85;;;8.30;93.70;;;;;;4865168;29;20052;-78
2021/12/12 10:57:30;;;;;;;3.40;1.88;;;8.40;93.70;;;;;;4881942;29;20064;-79
2021/12/12 11:00:04;;;;;;;3.10;1.90;;;8.50;93.80;;;;;;4867605;29;20041;-78
2021/12/12 11:02:34;;;;;;;3.50;1.90;;;8.40;93.70;;;;;;4867024;29;20049;-79
2021/12/12 11:05:11;;;;;;;4.28;2.13;;;8.40;94.00;;;;;;4881416;29;20037;-79
2021/12/12 11:07:43;;;;;;;4.38;2.10;;;8.50;93.70;;;;;;4846582;29;20128;-79
2021/12/12 11:10:17;;;;;;;3.38;2.13;;;8.50;93.70;;;;;;4848000;29;20505;-78
2021/12/12 11:12:50;;;;;;;3.83;2.05;;;8.50;93.70;;;;;;4863120;29;20056;-78
2021/12/12 11:15:25;;;;;;;3.15;1.85;;;8.50;93.70;;;;;;4833193;29;20048;-79
2021/12/12 11:18:00;;;;;;;3.65;1.83;;;8.50;93.70;;;;;;4863451;29;20041;-80
2021/12/12 11:20:34;;;;;;;3.55;1.80;;;8.50;93.70;;;;;;4862672;29;20053;-80
2021/12/12 11:23:08;;;;;;;2.65;1.80;;;8.60;93.80;;;;;;4879193;29;20466;-79
2021/12/12 11:25:57;;;;;;;3.40;1.90;;;8.60;93.80;;;;;;4860837;29;20049;-80
2021/12/12 11:28:30;;;;;;;2.80;1.55;;;8.70;93.80;;;;;;4862701;29;20059;-80
2021/12/12 11:31:04;;;;;;;3.10;1.67;;;8.60;93.80;;;;;;4862077;29;20489;-81
2021/12/12 11:33:33;;;;;;;2.92;1.98;;;8.60;93.80;;;;;;4862371;29;20070;-81
2021/12/12 11:36:00;;;;;;;3.30;1.73;;;8.70;93.80;;;;;;4862166;29;20123;-80
2021/12/12 11:38:38;;;;;;;3.20;1.75;;;8.70;93.80;;;;;;4847392;29;20060;-80
2021/12/12 11:41:12;;;;;;;4.85;2.00;;;8.70;93.80;;;;;;4845594;29;20045;-80
2021/12/12 11:44:01;;;;;;;3.60;2.00;;;8.70;93.80;;;;;;4847370;29;20124;-80
2021/12/12 11:46:37;;;;;;;3.97;1.90;;;8.70;93.80;;;;;;4836903;29;20059;-79
2021/12/12 11:49:12;;;;;;;3.33;1.83;;;8.80;93.80;;;;;;4844652;29;20501;-79
2021/12/12 11:51:43;;;;;;;3.17;1.75;;;8.80;93.80;;;;;;4848754;29;20409;-78
2021/12/12 11:54:36;;;;;;;3.33;1.90;;;8.80;93.80;;;;;;4854048;29;20049;-79
2021/12/12 11:57:09;;;;;;;2.67;1.63;;;8.80;93.80;;;;;;4889049;29;20044;-79
2021/12/12 11:59:50;;;;;;;3.42;2.03;;;8.80;93.80;;;;;;4886358;29;20045;-78
2021/12/12 12:02:35;;;;;;;3.67;2.20;;;8.90;93.80;;;;;;4887252;29;20052;-79
2021/12/12 12:05:33;;;;;;;3.33;1.90;;;8.90;93.80;;;;;;4885434;29;20068;-79
2021/12/12 12:08:25;;;;;;;3.28;2.00;;;8.90;93.80;;;;;;4872902;29;20061;-80
2021/12/12 12:11:20;;;;;;;3.25;1.85;;;9.00;93.80;;;;;;4885998;29;20036;-81
2021/12/12 12:13:54;;;;;;;4.32;2.00;;;9.00;93.80;;;;;;4869943;29;20078;-80
2021/12/12 12:16:54;;;;;;;3.38;1.90;;;9.00;93.70;;;;;;4888606;29;20057;-80
2021/12/12 12:19:42;;;;;;;3.45;1.85;;;9.10;93.80;;;;;;4873126;29;20051;-80
2021/12/12 12:22:26;;;;;;;2.95;1.70;;;9.10;93.80;;;;;;4853140;29;20043;-80
2021/12/12 12:25:02;;;;;;;2.78;1.80;;;9.10;93.80;;;;;;4870673;29;20068;-81
2021/12/12 12:27:43;;;;;;;4.35;2.30;;;9.10;93.80;;;;;;4847340;29;20045;-79
2021/12/12 12:30:45;;;;;;;3.50;1.90;;;9.10;93.80;;;;;;4852464;29;20048;-80
2021/12/12 12:33:51;;;;;;;3.88;1.95;;;9.10;94.10;;;;;;4886693;29;20053;-80
2021/12/12 12:36:56;;;;;;;3.67;2.20;;;9.10;93.80;;;;;;4868561;29;20061;-79
2021/12/12 12:39:56;;;;;;;3.42;1.90;;;9.20;93.80;;;;;;4877277;29;20072;-79
2021/12/12 12:42:57;;;;;;;2.80;1.70;;;9.20;93.80;;;;;;4860775;29;20094;-79
2021/12/12 12:45:56;;;;;;;2.58;1.80;;;9.20;93.90;;;;;;4888293;29;20140;-78
2021/12/12 12:48:56;;;;;;;3.53;2.17;;;9.20;93.80;;;;;;4882823;29;20404;-79
2021/12/12 12:51:59;;;;;;;4.30;2.13;;;9.20;93.80;;;;;;4884320;29;20142;-79
2021/12/12 12:54:57;;;;;;;3.08;1.80;;;9.30;93.80;;;;;;4879436;29;20390;-79
2021/12/12 12:57:31;;;;;;;3.40;1.95;;;9.30;93.80;;;;;;4871437;29;20519;-80
2021/12/12 13:00:06;;;;;;;3.75;1.98;;;9.30;93.80;;;;;;4869782;29;20569;-80
2021/12/12 13:02:51;;;;;;;3.10;1.98;;;9.30;93.90;;;;;;4858499;29;20069;-80
2021/12/12 13:05:49;;;;;;;3.05;1.70;;;9.40;93.90;;;;;;4864535;29;20053;-78
2021/12/12 13:08:48;;;;;;;4.00;2.28;;;9.30;93.90;;;;;;4876035;29;20180;-79
2021/12/12 13:11:20;;;;;;;4.18;2.13;;;9.30;93.90;;;;;;4888633;29;20066;-79
2021/12/12 13:13:55;;;;;;;3.42;1.90;;;9.40;93.90;;;;;;4857886;29;20124;-80
2021/12/12 13:16:41;;;;;;;3.22;1.85;;;9.40;93.90;;;;;;4873414;29;20053;-80
2021/12/12 13:19:29;;;;;;;3.50;2.00;;;9.40;93.90;;;;;;4887607;29;21279;-79
2021/12/12 13:22:15;;;;;;;3.53;2.00;;;9.40;93.90;;;;;;4877353;29;20064;-81
2021/12/12 13:25:11;;;;;;;4.00;2.10;;;9.40;93.90;;;;;;4877107;29;20049;-82
2021/12/12 13:28:47;;;;;;;3.50;1.75;;;9.40;93.90;;;;;;4819188;29;20113;-80
2021/12/12 13:31:28;;;;;;;3.20;1.88;;;9.40;93.90;;;;;;4784939;29;20105;-81
2021/12/12 13:35:26;;;;;;;3.45;1.98;;;9.40;93.90;;;;;;4772979;30;20082;-86
2021/12/12 13:38:23;;;;;;;2.20;1.73;;;9.40;93.90;;;;;;4773179;30;20151;-84
2021/12/12 13:41:25;;;;;;;3.08;1.75;;;9.40;93.90;;;;;;4762391;30;20091;-86
2021/12/12 13:44:03;;;;;;;3.40;2.00;;;9.50;94.00;;;;;;4784774;30;20043;-86
2021/12/12 13:47:10;;;;;;;4.40;2.05;;;9.50;94.00;;;;;;4753184;30;20067;-83
2021/12/12 13:49:47;;;;;;;2.95;1.90;;;9.40;94.00;;;;;;4701954;30;20056;-80
2021/12/12 13:52:41;;;;;;;3.88;2.00;;;9.50;94.00;;;;;;4734846;30;20470;-81